createdAt,value
2022-12-01T00:01:16.296Z,13.00
2022-12-01T00:03:43.919Z,11.20
2022-12-01T00:06:19.868Z,12.57
2022-12-01T00:09:08.027Z,12.13
2022-12-01T00:11:36.920Z,13.10
2022-12-01T00:14:04.475Z,11.10
2022-12-01T00:16:32.753Z,11.00
2022-12-01T00:19:00.171Z,11.90
2022-12-01T00:21:28.202Z,12.77
2022-12-01T00:23:57.689Z,13.40
2022-12-01T00:26:25.761Z,13.87
2022-12-01T00:28:54.658Z,14.63
2022-12-01T00:31:22.107Z,14.70
2022-12-01T00:33:49.166Z,15.00
2022-12-01T00:36:16.119Z,14.27
2022-12-01T00:38:43.227Z,15.37
2022-12-01T00:41:10.168Z,15.57
2022-12-01T00:43:37.510Z,15.57
2022-12-01T00:46:04.632Z,14.00
2022-12-01T00:48:32.124Z,13.07
2022-12-01T00:50:59.459Z,15.47
2022-12-01T00:53:26.415Z,15.73
2022-12-01T00:55:54.159Z,12.90
2022-12-01T00:58:22.157Z,15.80
2022-12-01T01:00:49.651Z,14.40
2022-12-01T01:03:16.669Z,14.43
2022-12-01T01:05:44.050Z,13.33
2022-12-01T01:08:12.868Z,14.17
2022-12-01T01:10:41.530Z,14.47
2022-12-01T01:13:08.925Z,12.97
2022-12-01T01:15:36.194Z,14.27
2022-12-01T01:18:03.839Z,11.70
2022-12-01T01:20:31.314Z,12.27
2022-12-01T01:22:58.519Z,10.80
2022-12-01T01:25:25.536Z,12.60
2022-12-01T01:27:52.487Z,12.63
2022-12-01T01:30:19.680Z,13.53
2022-12-01T01:32:46.644Z,15.80
2022-12-01T01:35:13.578Z,14.40
2022-12-01T01:37:40.745Z,13.57
2022-12-01T01:40:08.229Z,15.07
2022-12-01T01:42:35.226Z,13.37
2022-12-01T01:45:02.313Z,11.70
2022-12-01T01:47:39.190Z,13.60
2022-12-01T01:50:12.773Z,13.73
2022-12-01T01:52:45.064Z,12.73
2022-12-01T01:55:12.865Z,13.33
2022-12-01T01:57:41.020Z,12.50
2022-12-01T02:00:17.984Z,11.73
2022-12-01T02:02:48.269Z,13.47
2022-12-01T02:05:21.188Z,12.53
2022-12-01T02:07:49.172Z,13.43
2022-12-01T02:10:22.429Z,13.23
2022-12-01T02:12:55.652Z,12.53
2022-12-01T02:15:32.148Z,12.97
2022-12-01T02:18:33.134Z,12.93
2022-12-01T02:21:20.885Z,13.60
2022-12-01T02:23:57.089Z,13.70
2022-12-01T02:26:48.544Z,14.00
2022-12-01T02:29:27.490Z,13.33
2022-12-01T02:32:28.150Z,12.50
2022-12-01T02:35:27.772Z,13.57
2022-12-01T02:38:16.445Z,14.37
2022-12-01T02:40:49.761Z,13.97
2022-12-01T02:43:48.349Z,13.63
2022-12-01T02:46:29.973Z,13.33
2022-12-01T02:49:00.943Z,18.37
2022-12-01T02:51:32.573Z,15.50
2022-12-01T02:54:02.342Z,12.97
2022-12-01T02:56:29.787Z,17.33
2022-12-01T02:58:57.139Z,15.07
2022-12-01T03:01:24.153Z,13.17
2022-12-01T03:04:03.016Z,13.10
2022-12-01T03:06:35.663Z,13.10
2022-12-01T03:09:27.417Z,12.83
2022-12-01T03:12:38.795Z,14.33
2022-12-01T03:15:12.255Z,13.60
2022-12-01T03:17:47.378Z,15.10
2022-12-01T03:20:26.829Z,14.10
2022-12-01T03:23:09.612Z,15.87
2022-12-01T03:25:39.906Z,16.70
2022-12-01T03:28:24.908Z,16.03
2022-12-01T03:30:57.273Z,18.30
2022-12-01T03:33:36.826Z,52.93
2022-12-01T03:36:11.864Z,20.13
2022-12-01T03:38:41.198Z,14.33
2022-12-01T03:41:19.767Z,15.20
2022-12-01T03:43:57.646Z,13.43
2022-12-01T03:46:44.816Z,13.33
2022-12-01T03:49:13.868Z,12.37
2022-12-01T03:51:47.211Z,14.40
2022-12-01T03:54:46.726Z,13.77
2022-12-01T03:57:23.118Z,13.47
2022-12-01T03:59:50.780Z,12.00
2022-12-01T04:02:18.404Z,11.90
2022-12-01T04:04:45.394Z,12.03
2022-12-01T04:07:13.569Z,10.20
2022-12-01T04:09:41.936Z,10.93
2022-12-01T04:12:33.018Z,10.07
2022-12-01T04:15:03.272Z,11.17
2022-12-01T04:17:30.995Z,12.47
2022-12-01T04:19:58.188Z,11.23
2022-12-01T04:22:25.419Z,10.50
2022-12-01T04:24:53.915Z,11.13
2022-12-01T04:27:21.301Z,14.27
2022-12-01T04:29:48.583Z,11.43
2022-12-01T04:32:15.796Z,9.20
2022-12-01T04:34:42.939Z,11.03
2022-12-01T04:37:12.063Z,12.40
2022-12-01T04:39:39.604Z,11.77
2022-12-01T04:42:06.670Z,11.73
2022-12-01T04:44:35.267Z,11.83
2022-12-01T04:47:06.124Z,12.13
2022-12-01T04:49:33.960Z,11.33
2022-12-01T04:52:01.021Z,12.37
2022-12-01T04:54:28.221Z,11.23
2022-12-01T04:56:55.240Z,12.00
2022-12-01T04:59:22.378Z,11.60
2022-12-01T05:01:49.411Z,12.67
2022-12-01T05:04:16.583Z,14.30
2022-12-01T05:06:43.678Z,12.77
2022-12-01T05:09:17.568Z,12.80
2022-12-01T05:11:45.380Z,12.30
2022-12-01T05:14:12.834Z,13.33
2022-12-01T05:16:40.007Z,11.77
2022-12-01T05:19:26.180Z,12.37
2022-12-01T05:21:53.281Z,13.60
2022-12-01T05:24:21.205Z,13.20
2022-12-01T05:26:48.266Z,13.27
2022-12-01T05:29:15.392Z,15.00
2022-12-01T05:31:42.605Z,14.57
2022-12-01T05:34:09.686Z,14.03
2022-12-01T05:36:36.748Z,14.07
2022-12-01T05:39:04.929Z,16.47
2022-12-01T05:41:32.063Z,14.07
2022-12-01T05:43:59.084Z,16.23
2022-12-01T05:46:26.201Z,13.30
2022-12-01T05:48:53.260Z,17.40
2022-12-01T05:51:20.509Z,101.60
2022-12-01T05:53:47.508Z,39.27
2022-12-01T05:56:14.498Z,22.00
2022-12-01T05:58:41.540Z,14.13
2022-12-01T06:01:08.886Z,15.50
2022-12-01T06:03:35.863Z,13.83
2022-12-01T06:06:03.635Z,17.97
2022-12-01T06:08:31.235Z,14.57
2022-12-01T06:10:58.886Z,16.17
2022-12-01T06:13:26.016Z,17.10
2022-12-01T06:16:00.589Z,13.50
2022-12-01T06:18:27.995Z,16.77
2022-12-01T06:20:55.062Z,16.53
2022-12-01T06:23:25.208Z,20.30
2022-12-01T06:25:54.648Z,19.63
2022-12-01T06:28:21.707Z,16.87
2022-12-01T06:30:48.647Z,17.37
2022-12-01T06:33:15.630Z,25.63
2022-12-01T06:35:42.673Z,16.00
2022-12-01T06:38:09.665Z,26.40
2022-12-01T06:40:36.703Z,46.50
2022-12-01T06:43:03.828Z,30.77
2022-12-01T06:45:31.387Z,23.93
2022-12-01T06:47:58.445Z,26.43
2022-12-01T06:50:25.927Z,25.73
2022-12-01T06:52:53.172Z,16.67
2022-12-01T06:55:20.160Z,17.43
2022-12-01T06:57:47.479Z,27.30
2022-12-01T07:00:15.233Z,27.60
2022-12-01T07:02:42.290Z,19.43
2022-12-01T07:05:09.844Z,19.17
2022-12-01T07:07:40.259Z,18.37
2022-12-01T07:10:08.654Z,19.87
2022-12-01T07:12:35.768Z,18.00
2022-12-01T07:15:03.209Z,16.40
2022-12-01T07:17:30.582Z,15.77
2022-12-01T07:19:57.751Z,21.60
2022-12-01T07:22:29.530Z,57.23
2022-12-01T07:24:59.391Z,29.43
2022-12-01T07:27:29.939Z,21.67
2022-12-01T07:29:56.889Z,18.77
2022-12-01T07:32:23.883Z,19.30
2022-12-01T07:34:50.869Z,16.50
2022-12-01T07:37:17.947Z,19.50
2022-12-01T07:39:44.935Z,16.57
2022-12-01T07:42:11.928Z,16.33
2022-12-01T07:44:38.929Z,14.47
2022-12-01T07:47:05.936Z,13.23
2022-12-01T07:49:34.336Z,14.63
2022-12-01T07:52:01.378Z,22.10
2022-12-01T07:54:28.350Z,18.40
2022-12-01T07:56:55.354Z,15.37
2022-12-01T07:59:22.420Z,16.27
2022-12-01T08:01:49.393Z,15.30
2022-12-01T08:04:16.358Z,13.53
2022-12-01T08:06:43.349Z,15.00
2022-12-01T08:09:10.325Z,13.17
2022-12-01T08:11:37.372Z,14.73
2022-12-01T08:14:04.356Z,13.03
2022-12-01T08:16:31.570Z,13.13
2022-12-01T08:18:58.747Z,13.97
2022-12-01T08:21:25.850Z,12.63
2022-12-01T08:23:55.106Z,11.40
2022-12-01T08:26:23.475Z,11.43
2022-12-01T08:28:50.661Z,10.90
2022-12-01T08:31:24.048Z,15.00
2022-12-01T08:33:51.729Z,13.70
2022-12-01T08:36:20.517Z,16.57
2022-12-01T08:38:49.124Z,12.53
2022-12-01T08:41:16.446Z,11.03
2022-12-01T08:44:01.141Z,13.23
2022-12-01T08:46:31.839Z,29.07
2022-12-01T08:48:58.924Z,12.50
2022-12-01T08:51:27.050Z,13.50
2022-12-01T08:53:55.716Z,17.73
2022-12-01T08:56:25.984Z,41.10
2022-12-01T08:58:54.782Z,14.57
2022-12-01T09:01:22.171Z,22.43
2022-12-01T09:03:49.300Z,26.77
2022-12-01T09:06:22.055Z,74.90
2022-12-01T09:08:49.062Z,27.57
2022-12-01T09:11:18.868Z,41.93
2022-12-01T09:13:54.250Z,26.90
2022-12-01T09:16:22.097Z,19.77
2022-12-01T09:18:49.613Z,20.47
2022-12-01T09:21:19.669Z,18.40
2022-12-01T09:23:47.497Z,25.13
2022-12-01T09:26:18.629Z,28.10
2022-12-01T09:28:47.276Z,16.70
2022-12-01T09:31:16.009Z,14.63
2022-12-01T09:33:43.120Z,103.43
2022-12-01T09:36:10.967Z,23.47
2022-12-01T09:38:39.134Z,43.33
2022-12-01T09:41:12.567Z,25.20
2022-12-01T09:43:48.667Z,22.67
2022-12-01T09:46:28.912Z,20.97
2022-12-01T09:48:57.875Z,15.33
2022-12-01T09:51:28.391Z,12.20
2022-12-01T09:53:59.563Z,18.23
2022-12-01T09:56:40.604Z,20.63
2022-12-01T09:59:14.238Z,19.27
2022-12-01T10:01:44.511Z,37.87
2022-12-01T10:04:21.069Z,30.53
2022-12-01T10:06:55.723Z,137.30
2022-12-01T10:09:39.126Z,39.13
2022-12-01T10:12:22.585Z,28.83
2022-12-01T10:14:50.625Z,38.17
2022-12-01T10:17:42.830Z,27.40
2022-12-01T10:20:20.945Z,31.13
2022-12-01T10:22:56.771Z,23.37
2022-12-01T10:25:25.382Z,26.50
2022-12-01T10:28:28.317Z,27.33
2022-12-01T10:31:03.043Z,25.27
2022-12-01T10:34:04.264Z,21.37
2022-12-01T10:36:33.524Z,23.50
2022-12-01T10:39:02.518Z,36.40
2022-12-01T10:41:33.779Z,28.80
2022-12-01T10:44:03.375Z,39.47
2022-12-01T10:46:55.725Z,16.97
2022-12-01T10:49:39.529Z,25.80
2022-12-01T10:52:07.606Z,19.17
2022-12-01T10:54:40.721Z,21.70
2022-12-01T10:57:15.757Z,17.20
2022-12-01T10:59:53.360Z,34.87
2022-12-01T11:02:23.323Z,15.67
2022-12-01T11:05:01.227Z,47.63
2022-12-01T11:07:33.680Z,28.93
2022-12-01T11:10:12.565Z,52.27
2022-12-01T11:12:40.297Z,19.20
2022-12-01T11:15:08.578Z,38.57
2022-12-01T11:17:40.021Z,26.70
2022-12-01T11:20:26.676Z,47.90
2022-12-01T11:23:14.336Z,34.40
2022-12-01T11:25:41.771Z,43.73
2022-12-01T11:28:20.901Z,30.47
2022-12-01T11:30:56.799Z,41.30
2022-12-01T11:33:23.977Z,24.00
2022-12-01T11:35:51.487Z,19.40
2022-12-01T11:38:31.074Z,20.30
2022-12-01T11:40:58.641Z,25.83
2022-12-01T11:43:40.677Z,16.43
2022-12-01T11:46:10.015Z,12.30
2022-12-01T11:48:37.198Z,44.10
2022-12-01T11:51:22.391Z,81.47
2022-12-01T11:53:49.384Z,41.73
2022-12-01T11:56:25.930Z,23.93
2022-12-01T11:59:02.346Z,21.43
2022-12-01T12:01:46.981Z,30.90
2022-12-01T12:04:32.409Z,18.73
2022-12-01T12:07:23.665Z,20.63
2022-12-01T12:10:21.383Z,32.23
2022-12-01T12:12:51.356Z,44.73
2022-12-01T12:15:44.401Z,46.60
2022-12-01T12:18:46.614Z,26.40
2022-12-01T12:21:39.145Z,32.53
2022-12-01T12:24:08.904Z,19.47
2022-12-01T12:26:39.726Z,20.97
2022-12-01T12:29:18.980Z,27.80
2022-12-01T12:32:21.948Z,131.97
2022-12-01T12:34:55.688Z,38.70
2022-12-01T12:37:35.058Z,49.20
2022-12-01T12:40:38.186Z,24.03
2022-12-01T12:43:30.773Z,52.53
2022-12-01T12:46:05.632Z,48.40
2022-12-01T12:49:12.101Z,34.83
2022-12-01T12:51:44.787Z,29.03
2022-12-01T12:54:36.119Z,26.33
2022-12-01T12:57:07.079Z,27.87
2022-12-01T12:59:45.024Z,38.33
2022-12-01T13:02:37.898Z,50.27
2022-12-01T13:05:16.537Z,37.27
2022-12-01T13:07:53.862Z,30.83
2022-12-01T13:10:24.314Z,29.23
2022-12-01T13:13:21.296Z,51.77
2022-12-01T13:15:51.302Z,25.87
2022-12-01T13:18:43.218Z,29.00
2022-12-01T13:21:19.268Z,24.30
2022-12-01T13:23:48.443Z,18.97
2022-12-01T13:26:17.865Z,22.57
2022-12-01T13:28:51.804Z,25.30
2022-12-01T13:31:20.732Z,26.37
2022-12-01T13:33:58.887Z,32.30
2022-12-01T13:39:23.171Z,35.83
2022-12-01T13:42:26.957Z,28.33
2022-12-01T13:45:14.074Z,18.27
2022-12-01T13:47:46.809Z,26.03
2022-12-01T13:50:46.115Z,17.20
2022-12-01T13:53:28.153Z,24.93
2022-12-01T13:56:04.679Z,27.60
2022-12-01T13:58:34.736Z,25.40
2022-12-01T14:01:20.195Z,38.27
2022-12-01T14:04:03.241Z,29.83
2022-12-01T14:06:51.297Z,32.47
2022-12-01T14:09:37.870Z,25.17
2022-12-01T14:12:18.822Z,27.33
2022-12-01T14:15:02.920Z,34.33
2022-12-01T14:17:38.138Z,39.33
2022-12-01T14:20:21.550Z,47.13
2022-12-01T14:23:11.150Z,96.73
2022-12-01T14:25:39.283Z,64.97
2022-12-01T14:28:16.023Z,129.47
2022-12-01T14:30:45.968Z,57.60
2022-12-01T14:33:51.266Z,36.20
2022-12-01T14:36:24.222Z,30.60
2022-12-01T14:39:14.499Z,31.13
2022-12-01T14:42:06.705Z,25.17
2022-12-01T14:44:33.655Z,27.57
2022-12-01T14:47:17.134Z,28.40
2022-12-01T14:50:03.035Z,28.70
2022-12-01T14:52:32.142Z,31.50
2022-12-01T14:55:02.003Z,25.50
2022-12-01T14:57:37.789Z,27.07
2022-12-01T15:00:12.945Z,26.10
2022-12-01T15:03:16.052Z,38.47
2022-12-01T15:05:44.173Z,23.90
2022-12-01T15:08:45.898Z,25.93
2022-12-01T15:11:26.434Z,20.57
2022-12-01T15:13:57.742Z,20.13
2022-12-01T15:16:28.540Z,19.40
2022-12-01T15:18:56.014Z,20.93
2022-12-01T15:21:27.189Z,18.10
2022-12-01T15:24:03.185Z,22.00
2022-12-01T15:26:45.510Z,23.97
2022-12-01T15:29:30.374Z,24.43
2022-12-01T15:31:59.900Z,23.43
2022-12-01T15:34:40.155Z,21.47
2022-12-01T15:37:19.138Z,23.57
2022-12-01T15:39:52.384Z,52.30
2022-12-01T15:42:29.712Z,39.93
2022-12-01T15:45:02.171Z,19.57
2022-12-01T15:47:43.033Z,56.93
2022-12-01T15:50:33.457Z,53.00
2022-12-01T15:53:21.646Z,67.90
2022-12-01T15:55:54.159Z,151.30
2022-12-01T15:58:30.407Z,79.63
2022-12-01T16:01:04.296Z,45.77
2022-12-01T16:03:32.551Z,30.40
2022-12-01T16:05:59.578Z,41.87
2022-12-01T16:08:29.911Z,64.37
2022-12-01T16:11:11.263Z,106.13
2022-12-01T16:14:08.058Z,96.37
2022-12-01T16:16:39.771Z,63.43
2022-12-01T16:19:09.516Z,80.13
2022-12-01T16:21:51.858Z,129.53
2022-12-01T16:24:35.810Z,67.90
2022-12-01T16:27:05.947Z,89.30
2022-12-01T16:29:55.828Z,73.93
2022-12-01T16:32:34.716Z,73.53
2022-12-01T16:35:04.247Z,92.17
2022-12-01T16:37:32.142Z,113.97
2022-12-01T16:39:59.173Z,89.30
2022-12-01T16:42:27.325Z,57.30
2022-12-01T16:44:54.459Z,67.40
2022-12-01T16:47:24.055Z,83.50
2022-12-01T16:49:52.376Z,53.50
2022-12-01T16:55:36.252Z,102.17
2022-12-01T16:58:03.426Z,49.20
2022-12-01T17:00:31.488Z,39.53
2022-12-01T17:02:58.937Z,38.60
2022-12-01T17:05:26.036Z,38.83
2022-12-01T17:07:53.498Z,41.83
2022-12-01T17:10:21.271Z,27.70
2022-12-01T17:12:48.288Z,40.10
2022-12-01T17:15:15.347Z,22.23
2022-12-01T17:17:42.576Z,27.03
2022-12-01T17:20:10.726Z,29.00
2022-12-01T17:22:38.027Z,18.73
2022-12-01T17:25:06.243Z,21.63
2022-12-01T17:27:33.501Z,24.27
2022-12-01T17:30:00.544Z,29.90
2022-12-01T17:32:28.012Z,23.50
2022-12-01T17:34:55.206Z,18.93
2022-12-01T17:37:22.201Z,26.67
2022-12-01T17:39:50.307Z,22.80
2022-12-01T17:42:17.271Z,24.30
2022-12-01T17:44:44.278Z,23.43
2022-12-01T17:47:11.620Z,20.30
2022-12-01T17:49:38.664Z,23.80
2022-12-01T17:52:06.750Z,20.50
2022-12-01T17:54:33.999Z,18.37
2022-12-01T17:57:01.000Z,18.10
2022-12-01T17:59:28.067Z,19.27
2022-12-01T18:01:55.188Z,21.67
2022-12-01T18:04:22.194Z,21.60
2022-12-01T18:06:53.802Z,19.17
2022-12-01T18:09:21.387Z,23.17
2022-12-01T18:11:48.859Z,27.27
2022-12-01T18:14:19.088Z,23.17
2022-12-01T18:16:46.339Z,23.13
2022-12-01T18:19:13.451Z,26.77
2022-12-01T18:21:41.030Z,24.03
2022-12-01T18:24:11.564Z,22.50
2022-12-01T18:26:40.392Z,30.93
2022-12-01T18:29:23.837Z,25.77
2022-12-01T18:31:52.728Z,27.03
2022-12-01T18:34:19.815Z,40.17
2022-12-01T18:36:47.209Z,32.40
2022-12-01T18:39:14.358Z,26.03
2022-12-01T18:41:41.631Z,26.37
2022-12-01T18:44:08.716Z,24.03
2022-12-01T18:46:35.813Z,25.10
2022-12-01T18:49:04.772Z,23.80
2022-12-01T18:51:34.162Z,26.57
2022-12-01T18:54:03.465Z,27.93
2022-12-01T18:56:30.922Z,30.07
2022-12-01T18:59:03.532Z,30.17
2022-12-01T19:01:33.830Z,27.33
2022-12-01T19:04:01.857Z,24.70
2022-12-01T19:06:30.174Z,23.30
2022-12-01T19:09:01.540Z,24.90
2022-12-01T19:11:29.147Z,22.03
2022-12-01T19:13:56.827Z,22.37
2022-12-01T19:16:24.341Z,22.97
2022-12-01T19:18:51.491Z,28.53
2022-12-01T19:21:20.461Z,37.37
2022-12-01T19:23:48.281Z,27.67
2022-12-01T19:26:20.646Z,32.13
2022-12-01T19:28:48.490Z,26.57
2022-12-01T19:31:25.932Z,25.47
2022-12-01T19:33:54.099Z,26.07
2022-12-01T19:36:24.065Z,22.67
2022-12-01T19:38:51.310Z,19.77
2022-12-01T19:41:24.363Z,22.30
2022-12-01T19:43:52.531Z,23.00
2022-12-01T19:46:21.829Z,22.93
2022-12-01T19:48:54.342Z,21.40
2022-12-01T19:51:26.971Z,25.93
2022-12-01T19:53:54.721Z,23.20
2022-12-01T19:56:22.738Z,22.93
2022-12-01T19:58:49.943Z,22.07
2022-12-01T20:01:18.715Z,23.73
2022-12-01T20:03:47.703Z,23.13
2022-12-01T20:06:17.229Z,22.27
2022-12-01T20:08:44.256Z,22.70
2022-12-01T20:11:12.629Z,24.60
2022-12-01T20:13:41.777Z,23.13
2022-12-01T20:16:12.345Z,25.70
2022-12-01T20:18:40.542Z,25.83
2022-12-01T20:21:17.430Z,30.90
2022-12-01T20:23:46.941Z,31.80
2022-12-01T20:26:15.000Z,28.83
2022-12-01T20:28:42.562Z,29.33
2022-12-01T20:31:13.010Z,28.73
2022-12-01T20:33:40.603Z,28.00
2022-12-01T20:36:08.366Z,26.30
2022-12-01T20:38:36.649Z,25.60
2022-12-01T20:41:04.827Z,28.53
2022-12-01T20:43:32.956Z,26.07
2022-12-01T20:46:00.291Z,25.63
2022-12-01T20:48:27.605Z,24.43
2022-12-01T20:50:54.809Z,27.57
2022-12-01T20:53:22.399Z,26.87
2022-12-01T20:55:49.369Z,29.10
2022-12-01T20:58:16.330Z,28.60
2022-12-01T21:00:46.561Z,29.13
2022-12-01T21:03:14.086Z,25.20
2022-12-01T21:05:42.964Z,29.13
2022-12-01T21:08:12.431Z,46.37
2022-12-01T21:10:42.618Z,36.07
2022-12-01T21:13:42.124Z,38.97
2022-12-01T21:16:27.883Z,34.13
2022-12-01T21:19:13.806Z,30.93
2022-12-01T21:21:41.678Z,40.03
2022-12-01T21:24:08.683Z,39.07
2022-12-01T21:26:41.169Z,35.27
2022-12-01T21:29:19.531Z,39.83
2022-12-01T21:31:48.796Z,36.83
2022-12-01T21:34:22.900Z,51.37
2022-12-01T21:36:52.333Z,52.43
2022-12-01T21:39:22.323Z,57.33
2022-12-01T21:41:52.636Z,65.43
2022-12-01T21:44:21.994Z,51.67
2022-12-01T21:46:56.743Z,36.33
2022-12-01T21:49:37.973Z,37.00
2022-12-01T21:52:22.415Z,31.27
2022-12-01T21:54:49.976Z,21.20
2022-12-01T21:57:42.811Z,19.57
2022-12-01T22:00:34.872Z,21.23
2022-12-01T22:03:24.727Z,18.40
2022-12-01T22:06:21.252Z,16.57
2022-12-01T22:08:43.625Z,16.47
2022-12-01T22:11:23.342Z,16.47
2022-12-01T22:14:04.726Z,18.30
2022-12-01T22:16:34.367Z,16.80
2022-12-01T22:19:20.909Z,16.40
2022-12-01T22:21:49.473Z,16.20
2022-12-01T22:24:25.595Z,15.57
2022-12-01T22:27:21.697Z,15.00
2022-12-01T22:29:51.135Z,16.10
2022-12-01T22:32:32.725Z,13.73
2022-12-01T22:35:25.975Z,14.47
2022-12-01T22:38:11.002Z,15.27
2022-12-01T22:40:55.284Z,15.47
2022-12-01T22:43:32.843Z,15.23
2022-12-01T22:45:59.790Z,13.97
2022-12-01T22:48:39.205Z,16.80
2022-12-01T22:51:18.296Z,14.00
2022-12-01T22:53:46.251Z,14.60
2022-12-01T22:56:35.342Z,30.17
2022-12-01T22:59:24.633Z,19.70
2022-12-01T23:01:57.358Z,15.23
2022-12-01T23:04:38.428Z,14.37
2022-12-01T23:07:05.362Z,14.20
2022-12-01T23:09:42.814Z,14.23
2022-12-01T23:12:12.946Z,14.80
2022-12-01T23:14:51.169Z,13.83
2022-12-01T23:17:32.858Z,14.30
2022-12-01T23:20:11.862Z,14.43
2022-12-01T23:22:39.073Z,14.23
2022-12-01T23:25:18.598Z,13.47
2022-12-01T23:27:49.428Z,16.17
2022-12-01T23:30:18.156Z,15.10
2022-12-01T23:32:51.378Z,15.00
2022-12-01T23:35:19.018Z,15.30
2022-12-01T23:37:48.136Z,14.20
2022-12-01T23:40:29.139Z,14.73
2022-12-01T23:43:14.184Z,15.00
2022-12-01T23:45:41.245Z,13.20
2022-12-01T23:48:19.389Z,14.50
2022-12-01T23:50:49.436Z,13.67
2022-12-01T23:53:31.480Z,13.80
2022-12-01T23:56:07.284Z,13.93
2022-12-01T23:58:34.845Z,14.13
